createdAt,value
2022-12-29T00:01:34.240Z,0.28
2022-12-29T00:06:35.985Z,0.20
2022-12-29T00:11:37.738Z,0.10
2022-12-29T00:16:43.951Z,0.15
2022-12-29T00:22:04.485Z,0.05
2022-12-29T00:27:25.132Z,0.20
2022-12-29T00:32:45.810Z,0.32
2022-12-29T00:38:07.595Z,0.20
2022-12-29T00:43:27.963Z,0.10
2022-12-29T00:48:48.285Z,0.10
2022-12-29T00:53:50.182Z,0.20
2022-12-29T00:58:52.239Z,0.10
2022-12-29T01:03:57.383Z,0.20
2022-12-29T01:09:21.072Z,0.32
2022-12-29T01:14:23.923Z,0.30
2022-12-29T01:19:26.227Z,0.13
2022-12-29T01:24:28.213Z,0.20
2022-12-29T01:29:30.119Z,0.22
2022-12-29T01:34:31.939Z,0.10
2022-12-29T01:39:33.943Z,0.40
2022-12-29T01:44:57.488Z,0.05
2022-12-29T01:50:18.445Z,0.10
2022-12-29T01:55:20.729Z,0.15
2022-12-29T02:00:23.021Z,0.10
2022-12-29T02:05:34.409Z,0.10
2022-12-29T02:10:37.294Z,0.20
2022-12-29T02:16:00.080Z,0.10
2022-12-29T02:21:36.903Z,0.10
2022-12-29T02:27:03.634Z,0.10
2022-12-29T02:32:12.215Z,0.20
2022-12-29T02:37:23.627Z,0.10
2022-12-29T02:42:34.696Z,0.20
2022-12-29T02:47:36.383Z,0.10
2022-12-29T02:52:43.780Z,0.20
2022-12-29T02:57:45.542Z,0.05
2022-12-29T03:03:05.504Z,0.20
2022-12-29T03:08:40.309Z,0.10
2022-12-29T03:14:07.790Z,0.38
2022-12-29T03:19:15.901Z,0.30
2022-12-29T03:24:22.134Z,0.00
2022-12-29T03:29:24.868Z,0.10
2022-12-29T03:34:27.664Z,0.20
2022-12-29T03:39:30.155Z,0.10
2022-12-29T03:44:42.076Z,0.10
2022-12-29T03:49:43.855Z,0.20
2022-12-29T03:54:45.646Z,0.10
2022-12-29T03:59:47.440Z,0.20
2022-12-29T04:04:49.314Z,0.00
2022-12-29T04:09:51.031Z,0.20
2022-12-29T04:14:53.122Z,0.20
2022-12-29T04:20:14.855Z,0.00
2022-12-29T04:25:16.712Z,0.00
2022-12-29T04:30:20.449Z,0.20
2022-12-29T04:35:22.301Z,0.10
2022-12-29T04:40:24.889Z,0.25
2022-12-29T04:45:26.699Z,0.10
2022-12-29T04:50:28.682Z,0.00
2022-12-29T04:55:30.529Z,0.20
2022-12-29T05:00:32.355Z,0.10
2022-12-29T05:05:34.126Z,0.17
2022-12-29T05:10:36.163Z,0.20
2022-12-29T05:15:38.176Z,0.20
2022-12-29T05:20:39.852Z,0.10
2022-12-29T05:25:42.050Z,0.00
2022-12-29T05:30:43.807Z,0.10
2022-12-29T05:35:45.956Z,0.00
2022-12-29T05:40:47.740Z,0.00
2022-12-29T05:45:50.735Z,0.13
2022-12-29T05:50:52.976Z,0.30
2022-12-29T05:55:54.873Z,0.03
2022-12-29T06:00:56.974Z,0.03
2022-12-29T06:05:59.082Z,0.10
2022-12-29T06:11:01.222Z,0.40
2022-12-29T06:16:03.388Z,0.10
2022-12-29T06:21:06.475Z,0.28
2022-12-29T06:26:09.183Z,0.20
2022-12-29T06:31:12.054Z,0.20
2022-12-29T06:36:13.931Z,0.10
2022-12-29T06:41:15.684Z,0.10
2022-12-29T06:46:17.565Z,0.20
2022-12-29T06:51:19.627Z,0.20
2022-12-29T06:56:21.384Z,0.22
2022-12-29T07:01:23.332Z,0.20
2022-12-29T07:06:25.221Z,0.25
2022-12-29T07:11:27.043Z,0.20
2022-12-29T07:16:30.517Z,0.20
2022-12-29T07:21:32.338Z,0.13
2022-12-29T07:26:36.451Z,0.28
2022-12-29T07:31:38.490Z,0.20
2022-12-29T07:36:40.585Z,0.60
2022-12-29T07:41:42.411Z,0.52
2022-12-29T07:46:55.694Z,0.40
2022-12-29T07:51:59.587Z,0.20
2022-12-29T07:57:01.503Z,1.17
2022-12-29T08:02:03.642Z,0.45
2022-12-29T08:07:05.912Z,0.17
2022-12-29T08:12:11.431Z,0.30
2022-12-29T08:17:13.533Z,0.52
2022-12-29T08:22:16.189Z,0.68
2022-12-29T08:27:21.023Z,1.00
2022-12-29T08:32:23.433Z,0.60
2022-12-29T08:37:30.887Z,1.15
2022-12-29T08:42:33.253Z,0.60
2022-12-29T08:47:35.474Z,0.57
2022-12-29T08:52:37.135Z,0.80
2022-12-29T08:57:38.794Z,1.00
2022-12-29T09:02:40.758Z,0.88
2022-12-29T09:07:43.033Z,1.00
2022-12-29T09:12:44.994Z,0.80
2022-12-29T09:17:47.316Z,0.70
2022-12-29T09:22:49.426Z,1.00
2022-12-29T09:27:54.198Z,0.43
2022-12-29T09:32:55.906Z,0.55
2022-12-29T09:37:57.604Z,0.82
2022-12-29T09:43:27.116Z,0.77
2022-12-29T09:48:32.344Z,0.50
2022-12-29T09:53:37.453Z,0.75
2022-12-29T09:59:16.003Z,0.55
2022-12-29T10:04:18.051Z,0.70
2022-12-29T10:09:42.599Z,0.50
2022-12-29T10:15:12.109Z,0.88
2022-12-29T10:20:54.487Z,0.50
2022-12-29T10:25:57.959Z,0.68
2022-12-29T10:31:08.473Z,0.40
2022-12-29T10:36:18.306Z,0.95
2022-12-29T10:41:27.120Z,0.40
2022-12-29T10:46:37.788Z,0.38
2022-12-29T10:51:43.680Z,0.40
2022-12-29T10:56:55.899Z,0.73
2022-12-29T11:02:13.249Z,0.82
2022-12-29T11:07:20.960Z,0.28
2022-12-29T11:12:27.344Z,0.73
2022-12-29T11:17:29.598Z,0.47
2022-12-29T11:22:31.455Z,0.40
2022-12-29T11:27:34.158Z,0.70
2022-12-29T11:32:35.891Z,0.57
2022-12-29T11:37:41.401Z,0.47
2022-12-29T11:42:53.579Z,1.02
2022-12-29T11:48:01.496Z,0.85
2022-12-29T11:53:26.734Z,0.70
2022-12-29T11:58:37.708Z,0.65
2022-12-29T12:03:48.392Z,0.50
2022-12-29T12:08:56.371Z,0.75
2022-12-29T12:14:24.885Z,1.00
2022-12-29T12:19:47.947Z,0.47
2022-12-29T12:25:03.378Z,0.70
2022-12-29T12:30:06.984Z,1.00
2022-12-29T12:35:19.726Z,0.80
2022-12-29T12:40:29.199Z,0.90
2022-12-29T12:46:02.190Z,0.55
2022-12-29T12:51:39.870Z,0.38
2022-12-29T12:57:06.430Z,0.85
2022-12-29T13:02:36.035Z,0.55
2022-12-29T13:07:53.132Z,0.30
2022-12-29T13:13:22.679Z,0.50
2022-12-29T13:18:27.175Z,0.47
2022-12-29T13:23:43.912Z,0.77
2022-12-29T13:28:57.301Z,0.40
2022-12-29T13:34:33.224Z,0.30
2022-12-29T13:39:50.774Z,0.73
2022-12-29T13:45:00.741Z,0.32
2022-12-29T13:50:04.883Z,0.32
2022-12-29T13:55:32.203Z,1.05
2022-12-29T14:00:54.730Z,0.60
2022-12-29T14:06:33.141Z,0.60
2022-12-29T14:11:40.622Z,0.68
2022-12-29T14:16:44.090Z,0.43
2022-12-29T14:22:01.803Z,0.40
2022-12-29T14:27:13.222Z,0.50
2022-12-29T14:32:27.498Z,0.40
2022-12-29T14:37:40.173Z,0.65
2022-12-29T14:42:43.366Z,0.77
2022-12-29T14:47:47.789Z,0.30
2022-12-29T14:53:02.956Z,0.50
2022-12-29T14:58:14.244Z,0.40
2022-12-29T15:03:29.288Z,0.50
2022-12-29T15:08:34.634Z,0.55
2022-12-29T15:13:39.361Z,1.02
2022-12-29T15:18:43.734Z,0.50
2022-12-29T15:23:46.387Z,0.60
2022-12-29T15:28:48.568Z,0.40
2022-12-29T15:33:53.874Z,0.32
2022-12-29T15:38:57.391Z,0.38
2022-12-29T15:44:17.747Z,0.43
2022-12-29T15:49:21.421Z,1.08
2022-12-29T15:54:24.788Z,0.40
2022-12-29T15:59:34.722Z,0.50
2022-12-29T16:04:54.226Z,0.35
2022-12-29T16:10:00.932Z,0.38
2022-12-29T16:15:05.820Z,0.22
2022-12-29T16:20:19.075Z,0.40
2022-12-29T16:25:25.450Z,0.30
2022-12-29T16:30:33.837Z,0.60
2022-12-29T16:35:46.874Z,0.93
2022-12-29T16:40:58.490Z,0.60
2022-12-29T16:46:00.338Z,0.35
2022-12-29T16:51:05.686Z,0.45
2022-12-29T16:56:18.965Z,0.43
2022-12-29T17:01:21.664Z,0.50
2022-12-29T17:06:24.027Z,0.40
2022-12-29T17:11:53.909Z,0.50
2022-12-29T17:17:01.242Z,0.50
2022-12-29T17:22:03.848Z,0.55
2022-12-29T17:27:06.068Z,0.30
2022-12-29T17:32:13.578Z,0.70
2022-12-29T17:37:29.162Z,0.35
2022-12-29T17:42:33.314Z,0.70
2022-12-29T17:47:35.040Z,0.70
2022-12-29T17:52:36.875Z,0.40
2022-12-29T17:57:38.922Z,0.60
2022-12-29T18:02:41.308Z,0.70
2022-12-29T18:07:43.354Z,0.40
2022-12-29T18:12:48.272Z,0.40
2022-12-29T18:17:55.209Z,0.50
2022-12-29T18:22:58.984Z,0.57
2022-12-29T18:28:01.069Z,0.60
2022-12-29T18:33:03.599Z,0.85
2022-12-29T18:38:08.712Z,0.55
2022-12-29T18:43:13.731Z,0.40
2022-12-29T18:48:17.319Z,0.80
2022-12-29T18:53:24.404Z,0.38
2022-12-29T18:58:34.001Z,0.68
2022-12-29T19:03:36.407Z,0.30
2022-12-29T19:08:38.292Z,0.50
2022-12-29T19:13:40.707Z,0.45
2022-12-29T19:18:44.626Z,0.52
2022-12-29T19:23:49.135Z,0.50
2022-12-29T19:28:50.889Z,0.57
2022-12-29T19:33:53.687Z,0.40
2022-12-29T19:38:56.309Z,0.60
2022-12-29T19:43:58.356Z,0.50
2022-12-29T19:49:00.756Z,0.82
2022-12-29T19:54:02.685Z,0.60
2022-12-29T19:59:04.440Z,0.80
2022-12-29T20:04:06.310Z,0.82
2022-12-29T20:09:08.385Z,0.70
2022-12-29T20:14:10.480Z,0.70
2022-12-29T20:19:12.462Z,1.20
2022-12-29T20:24:14.546Z,0.57
2022-12-29T20:29:16.444Z,0.70
2022-12-29T20:34:20.133Z,0.90
2022-12-29T20:39:22.297Z,0.85
2022-12-29T20:44:24.379Z,1.20
2022-12-29T20:49:26.535Z,0.90
2022-12-29T20:54:29.929Z,0.55
2022-12-29T20:59:33.571Z,0.95
2022-12-29T21:05:05.483Z,1.10
2022-12-29T21:09:57.432Z,0.73
2022-12-29T21:14:59.379Z,1.10
2022-12-29T21:20:01.231Z,1.38
2022-12-29T21:25:03.029Z,0.63
2022-12-29T21:30:05.142Z,0.77
2022-12-29T21:35:07.962Z,1.25
2022-12-29T21:40:10.172Z,0.60
2022-12-29T21:45:27.825Z,0.40
2022-12-29T21:50:29.833Z,0.50
2022-12-29T21:55:31.540Z,0.60
2022-12-29T22:00:51.723Z,0.70
2022-12-29T22:06:13.412Z,0.77
2022-12-29T22:11:33.616Z,0.95
2022-12-29T22:16:35.563Z,0.90
2022-12-29T22:21:37.665Z,0.60
2022-12-29T22:26:39.460Z,0.80
2022-12-29T22:31:41.710Z,0.88
2022-12-29T22:36:43.556Z,0.60
2022-12-29T22:41:45.343Z,0.60
2022-12-29T22:46:47.190Z,0.98
2022-12-29T22:51:49.196Z,1.10
2022-12-29T22:56:51.104Z,0.93
2022-12-29T23:01:52.907Z,0.77
2022-12-29T23:06:54.758Z,0.60
2022-12-29T23:11:56.672Z,0.68
2022-12-29T23:16:58.814Z,0.50
2022-12-29T23:22:00.530Z,0.50
2022-12-29T23:27:02.616Z,0.70
2022-12-29T23:32:04.765Z,1.02
2022-12-29T23:37:06.696Z,0.70
2022-12-29T23:42:09.037Z,0.73
2022-12-29T23:47:10.718Z,0.50
2022-12-29T23:52:12.536Z,0.90
2022-12-29T23:57:14.381Z,0.70
